sensor_id;sensor_type;location;lat;lon;timestamp;P1;durP1;ratioP1;P2;durP2;ratioP2
29776;SDS011;16677;52.224;7.484;2023-06-24T00:01:19;10.50;;;9.57;;
29776;SDS011;16677;52.224;7.484;2023-06-24T00:03:48;10.80;;;9.60;;
29776;SDS011;16677;52.224;7.484;2023-06-24T00:06:19;10.63;;;9.53;;
29776;SDS011;16677;52.224;7.484;2023-06-24T00:08:48;10.47;;;9.47;;
29776;SDS011;16677;52.224;7.484;2023-06-24T00:11:16;11.00;;;9.93;;
29776;SDS011;16677;52.224;7.484;2023-06-24T00:13:44;10.87;;;9.87;;
29776;SDS011;16677;52.224;7.484;2023-06-24T00:16:12;10.73;;;9.47;;
29776;SDS011;16677;52.224;7.484;2023-06-24T00:28:29;12.20;;;11.00;;
29776;SDS011;16677;52.224;7.484;2023-06-24T00:30:59;12.63;;;11.23;;
29776;SDS011;16677;52.224;7.484;2023-06-24T00:33:29;12.20;;;10.57;;
29776;SDS011;16677;52.224;7.484;2023-06-24T00:35:56;11.80;;;10.60;;
29776;SDS011;16677;52.224;7.484;2023-06-24T00:38:24;12.70;;;11.23;;
29776;SDS011;16677;52.224;7.484;2023-06-24T00:40:51;12.20;;;11.07;;
29776;SDS011;16677;52.224;7.484;2023-06-24T00:43:19;11.23;;;10.23;;
29776;SDS011;16677;52.224;7.484;2023-06-24T00:45:46;13.07;;;11.13;;
29776;SDS011;16677;52.224;7.484;2023-06-24T00:48:15;11.50;;;10.30;;
29776;SDS011;16677;52.224;7.484;2023-06-24T00:50:42;11.60;;;10.33;;
29776;SDS011;16677;52.224;7.484;2023-06-24T00:55:40;12.02;;;11.02;;
29776;SDS011;16677;52.224;7.484;2023-06-24T00:58:07;12.75;;;11.65;;
29776;SDS011;16677;52.224;7.484;2023-06-24T01:00:35;11.73;;;10.73;;
29776;SDS011;16677;52.224;7.484;2023-06-24T01:03:04;12.80;;;11.65;;
29776;SDS011;16677;52.224;7.484;2023-06-24T01:05:33;11.10;;;10.10;;
29776;SDS011;16677;52.224;7.484;2023-06-24T01:08:02;11.77;;;10.77;;
29776;SDS011;16677;52.224;7.484;2023-06-24T01:10:30;11.63;;;10.57;;
29776;SDS011;16677;52.224;7.484;2023-06-24T01:12:58;12.73;;;10.80;;
29776;SDS011;16677;52.224;7.484;2023-06-24T01:15:26;12.13;;;10.97;;
29776;SDS011;16677;52.224;7.484;2023-06-24T01:20:49;11.73;;;10.50;;
29776;SDS011;16677;52.224;7.484;2023-06-24T01:30:17;12.07;;;10.97;;
29776;SDS011;16677;52.224;7.484;2023-06-24T01:33:15;12.27;;;11.03;;
29776;SDS011;16677;52.224;7.484;2023-06-24T01:35:53;13.57;;;12.17;;
29776;SDS011;16677;52.224;7.484;2023-06-24T01:38:23;13.27;;;12.00;;
29776;SDS011;16677;52.224;7.484;2023-06-24T01:41:00;12.10;;;11.00;;
29776;SDS011;16677;52.224;7.484;2023-06-24T01:43:32;12.50;;;11.40;;
29776;SDS011;16677;52.224;7.484;2023-06-24T01:46:03;13.33;;;11.97;;
29776;SDS011;16677;52.224;7.484;2023-06-24T01:48:35;13.37;;;11.90;;
29776;SDS011;16677;52.224;7.484;2023-06-24T01:53:39;15.70;;;11.83;;
29776;SDS011;16677;52.224;7.484;2023-06-24T01:56:15;16.77;;;12.60;;
29776;SDS011;16677;52.224;7.484;2023-06-24T01:58:44;13.40;;;11.80;;
29776;SDS011;16677;52.224;7.484;2023-06-24T02:01:13;13.73;;;12.43;;
29776;SDS011;16677;52.224;7.484;2023-06-24T02:03:41;12.90;;;11.67;;
29776;SDS011;16677;52.224;7.484;2023-06-24T02:06:11;14.90;;;12.77;;
29776;SDS011;16677;52.224;7.484;2023-06-24T02:08:40;14.37;;;13.07;;
29776;SDS011;16677;52.224;7.484;2023-06-24T02:11:10;15.03;;;12.40;;
29776;SDS011;16677;52.224;7.484;2023-06-24T02:13:41;13.67;;;12.47;;
29776;SDS011;16677;52.224;7.484;2023-06-24T02:16:10;14.00;;;12.70;;
29776;SDS011;16677;52.224;7.484;2023-06-24T02:18:39;16.80;;;13.13;;
29776;SDS011;16677;52.224;7.484;2023-06-24T02:21:10;15.17;;;13.77;;
29776;SDS011;16677;52.224;7.484;2023-06-24T02:23:38;15.10;;;13.60;;
29776;SDS011;16677;52.224;7.484;2023-06-24T02:26:07;14.63;;;13.23;;
29776;SDS011;16677;52.224;7.484;2023-06-24T02:28:38;15.60;;;14.10;;
29776;SDS011;16677;52.224;7.484;2023-06-24T02:31:07;17.23;;;14.73;;
29776;SDS011;16677;52.224;7.484;2023-06-24T02:33:37;16.93;;;15.27;;
29776;SDS011;16677;52.224;7.484;2023-06-24T02:36:05;16.27;;;14.63;;
29776;SDS011;16677;52.224;7.484;2023-06-24T02:38:33;20.63;;;16.50;;
29776;SDS011;16677;52.224;7.484;2023-06-24T02:41:03;18.30;;;16.50;;
29776;SDS011;16677;52.224;7.484;2023-06-24T02:43:32;17.23;;;15.67;;
29776;SDS011;16677;52.224;7.484;2023-06-24T02:46:02;17.63;;;16.13;;
29776;SDS011;16677;52.224;7.484;2023-06-24T02:48:32;17.00;;;15.40;;
29776;SDS011;16677;52.224;7.484;2023-06-24T02:51:03;17.17;;;15.30;;
29776;SDS011;16677;52.224;7.484;2023-06-24T02:53:34;18.57;;;15.43;;
29776;SDS011;16677;52.224;7.484;2023-06-24T02:56:04;17.07;;;15.57;;
29776;SDS011;16677;52.224;7.484;2023-06-24T02:58:32;17.87;;;16.13;;
29776;SDS011;16677;52.224;7.484;2023-06-24T03:01:06;20.07;;;18.07;;
29776;SDS011;16677;52.224;7.484;2023-06-24T03:03:34;19.17;;;17.17;;
29776;SDS011;16677;52.224;7.484;2023-06-24T03:06:03;20.07;;;18.23;;
29776;SDS011;16677;52.224;7.484;2023-06-24T03:08:31;19.80;;;17.90;;
29776;SDS011;16677;52.224;7.484;2023-06-24T03:10:59;21.50;;;19.40;;
29776;SDS011;16677;52.224;7.484;2023-06-24T03:13:26;21.67;;;19.67;;
29776;SDS011;16677;52.224;7.484;2023-06-24T03:15:53;21.00;;;18.93;;
29776;SDS011;16677;52.224;7.484;2023-06-24T03:18:21;20.73;;;18.80;;
29776;SDS011;16677;52.224;7.484;2023-06-24T03:20:48;20.40;;;18.40;;
29776;SDS011;16677;52.224;7.484;2023-06-24T03:23:15;20.20;;;17.80;;
29776;SDS011;16677;52.224;7.484;2023-06-24T03:25:43;19.17;;;17.23;;
29776;SDS011;16677;52.224;7.484;2023-06-24T03:28:10;18.63;;;16.83;;
29776;SDS011;16677;52.224;7.484;2023-06-24T03:30:37;17.53;;;15.77;;
29776;SDS011;16677;52.224;7.484;2023-06-24T03:33:06;16.80;;;15.00;;
29776;SDS011;16677;52.224;7.484;2023-06-24T03:35:33;16.57;;;14.87;;
29776;SDS011;16677;52.224;7.484;2023-06-24T03:38:01;17.87;;;15.67;;
29776;SDS011;16677;52.224;7.484;2023-06-24T03:40:28;17.83;;;14.90;;
29776;SDS011;16677;52.224;7.484;2023-06-24T03:42:58;17.57;;;14.90;;
29776;SDS011;16677;52.224;7.484;2023-06-24T03:45:27;16.87;;;15.27;;
29776;SDS011;16677;52.224;7.484;2023-06-24T03:47:55;16.10;;;14.60;;
29776;SDS011;16677;52.224;7.484;2023-06-24T03:50:22;15.30;;;13.90;;
29776;SDS011;16677;52.224;7.484;2023-06-24T03:52:50;15.83;;;13.90;;
29776;SDS011;16677;52.224;7.484;2023-06-24T03:55:17;15.30;;;13.80;;
29776;SDS011;16677;52.224;7.484;2023-06-24T03:57:46;15.60;;;14.10;;
29776;SDS011;16677;52.224;7.484;2023-06-24T04:00:13;15.53;;;13.40;;
29776;SDS011;16677;52.224;7.484;2023-06-24T04:22:36;14.10;;;12.83;;
29776;SDS011;16677;52.224;7.484;2023-06-24T04:25:06;15.47;;;13.67;;
29776;SDS011;16677;52.224;7.484;2023-06-24T04:27:34;15.13;;;13.73;;
29776;SDS011;16677;52.224;7.484;2023-06-24T04:30:03;14.93;;;13.53;;
29776;SDS011;16677;52.224;7.484;2023-06-24T04:32:33;15.33;;;13.57;;
29776;SDS011;16677;52.224;7.484;2023-06-24T04:44:52;17.52;;;14.30;;
29776;SDS011;16677;52.224;7.484;2023-06-24T04:47:20;15.50;;;13.90;;
29776;SDS011;16677;52.224;7.484;2023-06-24T04:49:47;16.47;;;14.87;;
29776;SDS011;16677;52.224;7.484;2023-06-24T04:52:14;15.63;;;14.13;;
29776;SDS011;16677;52.224;7.484;2023-06-24T04:54:41;15.95;;;14.60;;
29776;SDS011;16677;52.224;7.484;2023-06-24T04:57:09;15.17;;;13.77;;
29776;SDS011;16677;52.224;7.484;2023-06-24T05:00:00;16.67;;;15.00;;
29776;SDS011;16677;52.224;7.484;2023-06-24T05:02:28;16.70;;;15.18;;
29776;SDS011;16677;52.224;7.484;2023-06-24T05:04:55;15.17;;;13.77;;
29776;SDS011;16677;52.224;7.484;2023-06-24T05:07:23;15.73;;;14.17;;
29776;SDS011;16677;52.224;7.484;2023-06-24T05:09:50;15.57;;;14.07;;
29776;SDS011;16677;52.224;7.484;2023-06-24T05:12:18;15.27;;;13.60;;
29776;SDS011;16677;52.224;7.484;2023-06-24T05:14:48;17.03;;;13.47;;
29776;SDS011;16677;52.224;7.484;2023-06-24T05:17:19;14.63;;;13.10;;
29776;SDS011;16677;52.224;7.484;2023-06-24T05:19:47;15.33;;;13.83;;
29776;SDS011;16677;52.224;7.484;2023-06-24T05:22:14;14.60;;;13.20;;
29776;SDS011;16677;52.224;7.484;2023-06-24T05:24:42;13.93;;;12.67;;
29776;SDS011;16677;52.224;7.484;2023-06-24T05:27:10;14.23;;;12.87;;
29776;SDS011;16677;52.224;7.484;2023-06-24T05:29:37;14.40;;;13.10;;
29776;SDS011;16677;52.224;7.484;2023-06-24T05:32:04;15.35;;;13.88;;
29776;SDS011;16677;52.224;7.484;2023-06-24T05:34:32;14.43;;;13.13;;
29776;SDS011;16677;52.224;7.484;2023-06-24T05:37:03;13.48;;;12.38;;
29776;SDS011;16677;52.224;7.484;2023-06-24T05:39:31;14.23;;;12.20;;
29776;SDS011;16677;52.224;7.484;2023-06-24T05:41:58;13.30;;;12.18;;
29776;SDS011;16677;52.224;7.484;2023-06-24T05:44:26;14.98;;;13.32;;
29776;SDS011;16677;52.224;7.484;2023-06-24T05:46:53;13.25;;;12.05;;
29776;SDS011;16677;52.224;7.484;2023-06-24T05:49:26;14.32;;;12.85;;
29776;SDS011;16677;52.224;7.484;2023-06-24T05:51:53;13.40;;;12.10;;
29776;SDS011;16677;52.224;7.484;2023-06-24T05:54:20;14.13;;;12.73;;
29776;SDS011;16677;52.224;7.484;2023-06-24T05:56:51;13.18;;;11.93;;
29776;SDS011;16677;52.224;7.484;2023-06-24T05:59:18;13.70;;;12.30;;
29776;SDS011;16677;52.224;7.484;2023-06-24T06:31:16;14.85;;;13.52;;
29776;SDS011;16677;52.224;7.484;2023-06-24T06:33:43;14.48;;;12.70;;
29776;SDS011;16677;52.224;7.484;2023-06-24T06:36:10;13.90;;;12.55;;
29776;SDS011;16677;52.224;7.484;2023-06-24T06:38:37;14.98;;;13.57;;
29776;SDS011;16677;52.224;7.484;2023-06-24T06:41:05;14.35;;;12.85;;
29776;SDS011;16677;52.224;7.484;2023-06-24T06:46:00;13.70;;;12.52;;
29776;SDS011;16677;52.224;7.484;2023-06-24T06:48:27;14.52;;;13.23;;
29776;SDS011;16677;52.224;7.484;2023-06-24T06:50:56;14.07;;;12.73;;
29776;SDS011;16677;52.224;7.484;2023-06-24T06:53:23;14.25;;;13.02;;
29776;SDS011;16677;52.224;7.484;2023-06-24T06:55:50;13.02;;;11.82;;
29776;SDS011;16677;52.224;7.484;2023-06-24T06:58:17;14.20;;;12.80;;
29776;SDS011;16677;52.224;7.484;2023-06-24T07:00:45;13.35;;;11.98;;
29776;SDS011;16677;52.224;7.484;2023-06-24T07:03:13;12.85;;;11.48;;
29776;SDS011;16677;52.224;7.484;2023-06-24T07:05:40;12.73;;;11.43;;
29776;SDS011;16677;52.224;7.484;2023-06-24T07:08:08;11.90;;;10.90;;
29776;SDS011;16677;52.224;7.484;2023-06-24T07:10:35;12.00;;;10.90;;
29776;SDS011;16677;52.224;7.484;2023-06-24T07:13:03;11.85;;;10.70;;
29776;SDS011;16677;52.224;7.484;2023-06-24T07:15:30;13.10;;;10.02;;
29776;SDS011;16677;52.224;7.484;2023-06-24T07:17:57;10.70;;;9.75;;
29776;SDS011;16677;52.224;7.484;2023-06-24T07:20:24;10.80;;;9.80;;
29776;SDS011;16677;52.224;7.484;2023-06-24T07:22:52;10.55;;;9.55;;
29776;SDS011;16677;52.224;7.484;2023-06-24T07:25:19;10.95;;;10.05;;
29776;SDS011;16677;52.224;7.484;2023-06-24T07:27:48;9.98;;;8.98;;
29776;SDS011;16677;52.224;7.484;2023-06-24T07:30:15;12.75;;;9.57;;
29776;SDS011;16677;52.224;7.484;2023-06-24T07:32:42;10.82;;;9.77;;
29776;SDS011;16677;52.224;7.484;2023-06-24T07:35:09;9.65;;;8.70;;
29776;SDS011;16677;52.224;7.484;2023-06-24T07:37:39;12.07;;;8.93;;
29776;SDS011;16677;52.224;7.484;2023-06-24T07:40:06;11.13;;;8.80;;
29776;SDS011;16677;52.224;7.484;2023-06-24T07:42:37;10.50;;;8.75;;
29776;SDS011;16677;52.224;7.484;2023-06-24T07:45:05;12.60;;;9.05;;
29776;SDS011;16677;52.224;7.484;2023-06-24T07:47:32;10.38;;;9.38;;
29776;SDS011;16677;52.224;7.484;2023-06-24T07:50:00;10.07;;;8.87;;
29776;SDS011;16677;52.224;7.484;2023-06-24T07:52:28;10.20;;;9.40;;
29776;SDS011;16677;52.224;7.484;2023-06-24T07:54:55;11.93;;;9.70;;
29776;SDS011;16677;52.224;7.484;2023-06-24T07:57:23;11.48;;;10.38;;
29776;SDS011;16677;52.224;7.484;2023-06-24T07:59:50;10.82;;;9.85;;
29776;SDS011;16677;52.224;7.484;2023-06-24T08:02:18;10.90;;;9.82;;
29776;SDS011;16677;52.224;7.484;2023-06-24T08:07:20;11.20;;;10.07;;
29776;SDS011;16677;52.224;7.484;2023-06-24T08:09:47;11.90;;;10.80;;
29776;SDS011;16677;52.224;7.484;2023-06-24T08:12:14;11.65;;;10.45;;
29776;SDS011;16677;52.224;7.484;2023-06-24T08:14:43;11.32;;;10.23;;
29776;SDS011;16677;52.224;7.484;2023-06-24T08:17:10;12.52;;;11.43;;
29776;SDS011;16677;52.224;7.484;2023-06-24T08:19:37;10.52;;;9.48;;
29776;SDS011;16677;52.224;7.484;2023-06-24T08:22:04;10.30;;;9.30;;
29776;SDS011;16677;52.224;7.484;2023-06-24T08:24:32;13.23;;;9.88;;
29776;SDS011;16677;52.224;7.484;2023-06-24T08:26:59;12.13;;;10.98;;
29776;SDS011;16677;52.224;7.484;2023-06-24T08:29:27;11.60;;;10.52;;
29776;SDS011;16677;52.224;7.484;2023-06-24T08:31:55;12.63;;;11.20;;
29776;SDS011;16677;52.224;7.484;2023-06-24T08:34:22;13.50;;;10.90;;
29776;SDS011;16677;52.224;7.484;2023-06-24T08:36:52;10.93;;;9.77;;
29776;SDS011;16677;52.224;7.484;2023-06-24T08:39:19;9.85;;;8.85;;
29776;SDS011;16677;52.224;7.484;2023-06-24T08:41:46;10.70;;;9.30;;
29776;SDS011;16677;52.224;7.484;2023-06-24T08:44:14;11.50;;;10.38;;
29776;SDS011;16677;52.224;7.484;2023-06-24T08:46:41;10.30;;;9.32;;
29776;SDS011;16677;52.224;7.484;2023-06-24T08:51:39;10.45;;;9.40;;
29776;SDS011;16677;52.224;7.484;2023-06-24T08:54:09;10.48;;;9.35;;
29776;SDS011;16677;52.224;7.484;2023-06-24T08:56:37;12.63;;;11.43;;
29776;SDS011;16677;52.224;7.484;2023-06-24T08:59:08;12.45;;;11.32;;
29776;SDS011;16677;52.224;7.484;2023-06-24T09:01:35;12.60;;;10.52;;
29776;SDS011;16677;52.224;7.484;2023-06-24T09:04:03;11.15;;;10.10;;
29776;SDS011;16677;52.224;7.484;2023-06-24T09:06:32;11.55;;;10.35;;
29776;SDS011;16677;52.224;7.484;2023-06-24T09:09:04;14.32;;;12.48;;
29776;SDS011;16677;52.224;7.484;2023-06-24T09:11:31;13.43;;;12.00;;
29776;SDS011;16677;52.224;7.484;2023-06-24T09:13:59;12.25;;;11.13;;
29776;SDS011;16677;52.224;7.484;2023-06-24T09:16:29;12.18;;;11.02;;
29776;SDS011;16677;52.224;7.484;2023-06-24T09:18:56;13.68;;;11.57;;
29776;SDS011;16677;52.224;7.484;2023-06-24T09:21:26;13.13;;;11.90;;
29776;SDS011;16677;52.224;7.484;2023-06-24T09:23:57;14.00;;;11.20;;
29776;SDS011;16677;52.224;7.484;2023-06-24T09:26:25;12.90;;;11.60;;
29776;SDS011;16677;52.224;7.484;2023-06-24T09:28:53;10.82;;;9.80;;
29776;SDS011;16677;52.224;7.484;2023-06-24T09:31:21;9.88;;;8.88;;
29776;SDS011;16677;52.224;7.484;2023-06-24T09:33:50;10.23;;;9.23;;
29776;SDS011;16677;52.224;7.484;2023-06-24T09:36:19;11.57;;;8.60;;
29776;SDS011;16677;52.224;7.484;2023-06-24T09:38:46;10.73;;;9.60;;
29776;SDS011;16677;52.224;7.484;2023-06-24T09:41:15;10.18;;;9.13;;
29776;SDS011;16677;52.224;7.484;2023-06-24T09:43:43;11.38;;;9.10;;
29776;SDS011;16677;52.224;7.484;2023-06-24T09:46:11;8.88;;;8.07;;
29776;SDS011;16677;52.224;7.484;2023-06-24T09:48:40;12.05;;;9.73;;
29776;SDS011;16677;52.224;7.484;2023-06-24T09:51:09;10.23;;;9.27;;
29776;SDS011;16677;52.224;7.484;2023-06-24T09:53:39;11.35;;;10.15;;
29776;SDS011;16677;52.224;7.484;2023-06-24T09:56:11;9.07;;;8.27;;
29776;SDS011;16677;52.224;7.484;2023-06-24T09:58:42;8.95;;;7.43;;
29776;SDS011;16677;52.224;7.484;2023-06-24T10:01:11;8.57;;;7.75;;
29776;SDS011;16677;52.224;7.484;2023-06-24T10:03:39;9.65;;;8.65;;
29776;SDS011;16677;52.224;7.484;2023-06-24T10:06:07;9.55;;;8.57;;
29776;SDS011;16677;52.224;7.484;2023-06-24T10:08:34;10.13;;;7.82;;
29776;SDS011;16677;52.224;7.484;2023-06-24T10:11:02;10.23;;;7.80;;
29776;SDS011;16677;52.224;7.484;2023-06-24T10:13:29;9.00;;;7.90;;
29776;SDS011;16677;52.224;7.484;2023-06-24T10:15:56;10.52;;;8.63;;
29776;SDS011;16677;52.224;7.484;2023-06-24T10:20:57;8.80;;;7.82;;
29776;SDS011;16677;52.224;7.484;2023-06-24T10:23:32;8.55;;;7.68;;
29776;SDS011;16677;52.224;7.484;2023-06-24T10:37:09;7.95;;;7.25;;
29776;SDS011;16677;52.224;7.484;2023-06-24T10:39:37;9.05;;;8.15;;
29776;SDS011;16677;52.224;7.484;2023-06-24T10:47:41;8.90;;;8.02;;
29776;SDS011;16677;52.224;7.484;2023-06-24T10:50:27;10.10;;;9.07;;
29776;SDS011;16677;52.224;7.484;2023-06-24T10:52:54;9.20;;;8.10;;
29776;SDS011;16677;52.224;7.484;2023-06-24T10:55:24;10.05;;;7.82;;
29776;SDS011;16677;52.224;7.484;2023-06-24T10:57:54;7.53;;;6.72;;
29776;SDS011;16677;52.224;7.484;2023-06-24T11:00:39;8.13;;;7.32;;
29776;SDS011;16677;52.224;7.484;2023-06-24T11:03:11;9.90;;;8.90;;
29776;SDS011;16677;52.224;7.484;2023-06-24T11:05:44;10.68;;;9.60;;
29776;SDS011;16677;52.224;7.484;2023-06-24T11:08:12;9.57;;;8.57;;
29776;SDS011;16677;52.224;7.484;2023-06-24T11:10:43;10.57;;;9.40;;
29776;SDS011;16677;52.224;7.484;2023-06-24T11:13:13;9.75;;;8.77;;
29776;SDS011;16677;52.224;7.484;2023-06-24T11:15:40;10.75;;;8.07;;
29776;SDS011;16677;52.224;7.484;2023-06-24T11:18:09;9.32;;;8.07;;
29776;SDS011;16677;52.224;7.484;2023-06-24T11:20:37;8.68;;;7.53;;
29776;SDS011;16677;52.224;7.484;2023-06-24T11:23:08;9.55;;;8.55;;
29776;SDS011;16677;52.224;7.484;2023-06-24T11:25:38;11.07;;;8.23;;
29776;SDS011;16677;52.224;7.484;2023-06-24T11:28:17;10.35;;;9.25;;
29776;SDS011;16677;52.224;7.484;2023-06-24T11:30:48;9.30;;;8.38;;
29776;SDS011;16677;52.224;7.484;2023-06-24T11:33:29;11.32;;;9.15;;
29776;SDS011;16677;52.224;7.484;2023-06-24T11:35:57;9.63;;;8.38;;
29776;SDS011;16677;52.224;7.484;2023-06-24T11:38:24;9.80;;;8.32;;
29776;SDS011;16677;52.224;7.484;2023-06-24T11:40:58;13.10;;;9.02;;
29776;SDS011;16677;52.224;7.484;2023-06-24T11:43:27;9.73;;;8.73;;
29776;SDS011;16677;52.224;7.484;2023-06-24T11:45:56;9.88;;;8.88;;
29776;SDS011;16677;52.224;7.484;2023-06-24T11:48:27;12.70;;;8.90;;
29776;SDS011;16677;52.224;7.484;2023-06-24T11:50:55;12.55;;;10.10;;
29776;SDS011;16677;52.224;7.484;2023-06-24T11:53:45;12.05;;;10.20;;
29776;SDS011;16677;52.224;7.484;2023-06-24T11:56:12;9.88;;;8.88;;
29776;SDS011;16677;52.224;7.484;2023-06-24T11:58:42;10.70;;;8.85;;
29776;SDS011;16677;52.224;7.484;2023-06-24T12:01:09;7.43;;;6.72;;
29776;SDS011;16677;52.224;7.484;2023-06-24T12:03:36;7.25;;;6.38;;
29776;SDS011;16677;52.224;7.484;2023-06-24T12:06:04;7.78;;;6.70;;
29776;SDS011;16677;52.224;7.484;2023-06-24T12:08:32;7.80;;;7.10;;
29776;SDS011;16677;52.224;7.484;2023-06-24T12:11:16;8.68;;;7.72;;
29776;SDS011;16677;52.224;7.484;2023-06-24T12:13:45;8.48;;;6.65;;
29776;SDS011;16677;52.224;7.484;2023-06-24T12:16:12;9.60;;;6.95;;
29776;SDS011;16677;52.224;7.484;2023-06-24T12:18:40;6.93;;;6.30;;
29776;SDS011;16677;52.224;7.484;2023-06-24T12:21:07;6.38;;;5.82;;
29776;SDS011;16677;52.224;7.484;2023-06-24T12:23:34;5.88;;;5.28;;
29776;SDS011;16677;52.224;7.484;2023-06-24T12:26:04;6.88;;;5.95;;
29776;SDS011;16677;52.224;7.484;2023-06-24T12:28:31;5.57;;;5.07;;
29776;SDS011;16677;52.224;7.484;2023-06-24T12:30:58;5.60;;;5.10;;
29776;SDS011;16677;52.224;7.484;2023-06-24T12:33:26;5.55;;;5.03;;
29776;SDS011;16677;52.224;7.484;2023-06-24T12:35:53;6.03;;;5.30;;
29776;SDS011;16677;52.224;7.484;2023-06-24T12:38:20;7.63;;;6.20;;
29776;SDS011;16677;52.224;7.484;2023-06-24T12:40:47;5.32;;;4.82;;
29776;SDS011;16677;52.224;7.484;2023-06-24T12:43:15;6.15;;;4.90;;
29776;SDS011;16677;52.224;7.484;2023-06-24T12:45:42;7.85;;;5.72;;
29776;SDS011;16677;52.224;7.484;2023-06-24T12:48:10;5.65;;;4.88;;
29776;SDS011;16677;52.224;7.484;2023-06-24T12:50:39;5.45;;;4.95;;
29776;SDS011;16677;52.224;7.484;2023-06-24T12:53:06;5.15;;;4.65;;
29776;SDS011;16677;52.224;7.484;2023-06-24T12:55:34;5.13;;;4.63;;
29776;SDS011;16677;52.224;7.484;2023-06-24T12:58:01;5.65;;;4.05;;
29776;SDS011;16677;52.224;7.484;2023-06-24T13:00:28;6.47;;;4.68;;
29776;SDS011;16677;52.224;7.484;2023-06-24T13:02:59;5.63;;;4.93;;
29776;SDS011;16677;52.224;7.484;2023-06-24T13:05:26;4.15;;;3.80;;
29776;SDS011;16677;52.224;7.484;2023-06-24T13:07:53;4.28;;;3.83;;
29776;SDS011;16677;52.224;7.484;2023-06-24T13:10:21;5.00;;;4.45;;
29776;SDS011;16677;52.224;7.484;2023-06-24T13:12:48;4.70;;;4.25;;
29776;SDS011;16677;52.224;7.484;2023-06-24T13:15:17;5.60;;;4.00;;
29776;SDS011;16677;52.224;7.484;2023-06-24T13:17:45;4.32;;;3.92;;
29776;SDS011;16677;52.224;7.484;2023-06-24T13:20:12;4.28;;;3.88;;
29776;SDS011;16677;52.224;7.484;2023-06-24T13:22:39;4.22;;;3.83;;
29776;SDS011;16677;52.224;7.484;2023-06-24T13:25:06;4.43;;;4.03;;
29776;SDS011;16677;52.224;7.484;2023-06-24T13:27:34;4.20;;;3.83;;
29776;SDS011;16677;52.224;7.484;2023-06-24T13:30:05;6.47;;;4.15;;
29776;SDS011;16677;52.224;7.484;2023-06-24T13:32:33;4.10;;;3.70;;
29776;SDS011;16677;52.224;7.484;2023-06-24T13:35:00;4.10;;;3.78;;
29776;SDS011;16677;52.224;7.484;2023-06-24T13:37:27;5.18;;;3.72;;
29776;SDS011;16677;52.224;7.484;2023-06-24T13:39:54;6.88;;;4.80;;
29776;SDS011;16677;52.224;7.484;2023-06-24T13:42:22;5.25;;;3.70;;
29776;SDS011;16677;52.224;7.484;2023-06-24T13:44:49;5.20;;;3.38;;
29776;SDS011;16677;52.224;7.484;2023-06-24T13:47:16;3.72;;;3.42;;
29776;SDS011;16677;52.224;7.484;2023-06-24T13:49:43;5.53;;;3.65;;
29776;SDS011;16677;52.224;7.484;2023-06-24T13:52:10;3.33;;;3.03;;
29776;SDS011;16677;52.224;7.484;2023-06-24T13:54:37;3.85;;;3.55;;
29776;SDS011;16677;52.224;7.484;2023-06-24T13:57:05;3.83;;;3.50;;
29776;SDS011;16677;52.224;7.484;2023-06-24T13:59:35;4.78;;;3.75;;
29776;SDS011;16677;52.224;7.484;2023-06-24T14:02:02;3.42;;;3.10;;
29776;SDS011;16677;52.224;7.484;2023-06-24T14:04:29;3.75;;;3.40;;
29776;SDS011;16677;52.224;7.484;2023-06-24T14:07:08;4.22;;;3.83;;
29776;SDS011;16677;52.224;7.484;2023-06-24T14:09:37;3.72;;;3.42;;
29776;SDS011;16677;52.224;7.484;2023-06-24T14:12:06;4.93;;;3.70;;
29776;SDS011;16677;52.224;7.484;2023-06-24T14:14:48;3.80;;;3.50;;
29776;SDS011;16677;52.224;7.484;2023-06-24T14:17:15;4.20;;;3.80;;
29776;SDS011;16677;52.224;7.484;2023-06-24T14:19:42;4.75;;;3.67;;
29776;SDS011;16677;52.224;7.484;2023-06-24T14:22:11;3.90;;;3.55;;
29776;SDS011;16677;52.224;7.484;2023-06-24T14:24:41;6.05;;;3.40;;
29776;SDS011;16677;52.224;7.484;2023-06-24T14:27:10;5.13;;;4.03;;
29776;SDS011;16677;52.224;7.484;2023-06-24T14:29:39;4.90;;;3.50;;
29776;SDS011;16677;52.224;7.484;2023-06-24T14:32:07;3.47;;;3.17;;
29776;SDS011;16677;52.224;7.484;2023-06-24T14:34:37;4.25;;;3.08;;
29776;SDS011;16677;52.224;7.484;2023-06-24T14:37:05;3.78;;;3.47;;
29776;SDS011;16677;52.224;7.484;2023-06-24T14:39:32;4.40;;;3.38;;
29776;SDS011;16677;52.224;7.484;2023-06-24T14:42:04;3.83;;;3.30;;
29776;SDS011;16677;52.224;7.484;2023-06-24T14:44:31;4.38;;;3.65;;
29776;SDS011;16677;52.224;7.484;2023-06-24T14:47:00;4.15;;;3.75;;
29776;SDS011;16677;52.224;7.484;2023-06-24T14:49:27;6.22;;;3.80;;
29776;SDS011;16677;52.224;7.484;2023-06-24T14:51:54;4.30;;;3.90;;
29776;SDS011;16677;52.224;7.484;2023-06-24T14:54:22;6.70;;;4.05;;
29776;SDS011;16677;52.224;7.484;2023-06-24T14:56:49;4.63;;;4.13;;
29776;SDS011;16677;52.224;7.484;2023-06-24T14:59:18;4.18;;;3.78;;
29776;SDS011;16677;52.224;7.484;2023-06-24T15:01:45;4.20;;;3.80;;
29776;SDS011;16677;52.224;7.484;2023-06-24T15:04:13;4.57;;;3.90;;
29776;SDS011;16677;52.224;7.484;2023-06-24T15:06:40;4.03;;;3.53;;
29776;SDS011;16677;52.224;7.484;2023-06-24T15:09:08;3.92;;;3.53;;
29776;SDS011;16677;52.224;7.484;2023-06-24T15:11:36;3.90;;;3.60;;
29776;SDS011;16677;52.224;7.484;2023-06-24T15:14:05;3.75;;;3.33;;
29776;SDS011;16677;52.224;7.484;2023-06-24T15:16:45;3.95;;;3.53;;
29776;SDS011;16677;52.224;7.484;2023-06-24T15:19:24;4.28;;;3.83;;
29776;SDS011;16677;52.224;7.484;2023-06-24T15:22:05;3.95;;;3.55;;
29776;SDS011;16677;52.224;7.484;2023-06-24T15:24:33;3.65;;;3.35;;
29776;SDS011;16677;52.224;7.484;2023-06-24T15:27:00;3.65;;;3.33;;
29776;SDS011;16677;52.224;7.484;2023-06-24T15:29:31;4.00;;;3.33;;
29776;SDS011;16677;52.224;7.484;2023-06-24T15:32:04;3.50;;;3.20;;
29776;SDS011;16677;52.224;7.484;2023-06-24T15:34:32;4.35;;;3.28;;
29776;SDS011;16677;52.224;7.484;2023-06-24T15:37:13;3.60;;;3.30;;
29776;SDS011;16677;52.224;7.484;2023-06-24T15:39:46;3.65;;;3.08;;
29776;SDS011;16677;52.224;7.484;2023-06-24T15:42:13;3.83;;;3.25;;
29776;SDS011;16677;52.224;7.484;2023-06-24T15:44:40;4.00;;;3.60;;
29776;SDS011;16677;52.224;7.484;2023-06-24T15:47:11;4.72;;;3.25;;
29776;SDS011;16677;52.224;7.484;2023-06-24T15:49:38;3.40;;;3.10;;
29776;SDS011;16677;52.224;7.484;2023-06-24T15:52:05;3.97;;;3.33;;
29776;SDS011;16677;52.224;7.484;2023-06-24T15:54:33;3.83;;;3.50;;
29776;SDS011;16677;52.224;7.484;2023-06-24T15:57:00;3.28;;;2.97;;
29776;SDS011;16677;52.224;7.484;2023-06-24T15:59:27;3.78;;;3.47;;
29776;SDS011;16677;52.224;7.484;2023-06-24T16:01:54;4.20;;;3.80;;
29776;SDS011;16677;52.224;7.484;2023-06-24T16:04:35;4.53;;;3.15;;
29776;SDS011;16677;52.224;7.484;2023-06-24T16:07:19;3.90;;;3.50;;
29776;SDS011;16677;52.224;7.484;2023-06-24T16:09:49;4.15;;;3.17;;
29776;SDS011;16677;52.224;7.484;2023-06-24T16:12:16;4.00;;;3.60;;
29776;SDS011;16677;52.224;7.484;2023-06-24T16:14:44;4.18;;;3.72;;
29776;SDS011;16677;52.224;7.484;2023-06-24T16:17:11;5.25;;;4.07;;
29776;SDS011;16677;52.224;7.484;2023-06-24T16:19:39;4.15;;;3.67;;
29776;SDS011;16677;52.224;7.484;2023-06-24T16:22:09;3.65;;;3.35;;
29776;SDS011;16677;52.224;7.484;2023-06-24T16:24:36;5.13;;;3.80;;
29776;SDS011;16677;52.224;7.484;2023-06-24T16:27:03;4.00;;;3.70;;
29776;SDS011;16677;52.224;7.484;2023-06-24T16:29:31;4.03;;;3.72;;
29776;SDS011;16677;52.224;7.484;2023-06-24T16:32:51;3.88;;;3.47;;
29776;SDS011;16677;52.224;7.484;2023-06-24T16:35:38;4.03;;;3.35;;